createdAt,value
2022-10-08T00:00:18.319Z,1011.49
2022-10-08T00:01:18.324Z,1011.48
2022-10-08T00:02:19.255Z,1011.42
2022-10-08T00:03:18.304Z,1011.43
2022-10-08T00:04:18.353Z,1011.46
2022-10-08T00:05:18.294Z,1011.47
2022-10-08T00:06:18.313Z,1011.48
2022-10-08T00:07:18.295Z,1011.44
2022-10-08T00:08:18.299Z,1011.45
2022-10-08T00:09:18.297Z,1011.40
2022-10-08T00:10:18.302Z,1011.43
2022-10-08T00:11:18.325Z,1011.42
2022-10-08T00:12:18.303Z,1011.41
2022-10-08T00:13:18.294Z,1011.40
2022-10-08T00:14:18.304Z,1011.36
2022-10-08T00:15:18.296Z,1011.36
2022-10-08T00:16:18.333Z,1011.36
2022-10-08T00:17:18.329Z,1011.35
2022-10-08T00:18:18.290Z,1011.36
2022-10-08T00:19:18.296Z,1011.34
2022-10-08T00:20:18.296Z,1011.31
2022-10-08T00:21:18.285Z,1011.38
2022-10-08T00:22:18.298Z,1011.33
2022-10-08T00:23:18.306Z,1011.29
2022-10-08T00:24:18.285Z,1011.31
2022-10-08T00:25:18.286Z,1011.35
2022-10-08T00:26:18.318Z,1011.26
2022-10-08T00:27:18.299Z,1011.26
2022-10-08T00:28:18.350Z,1011.35
2022-10-08T00:29:18.275Z,1011.35
2022-10-08T00:30:18.288Z,1011.30
2022-10-08T00:31:18.345Z,1011.31
2022-10-08T00:32:18.284Z,1011.34
2022-10-08T00:33:18.273Z,1011.30
2022-10-08T00:34:18.297Z,1011.30
2022-10-08T00:35:18.282Z,1011.33
2022-10-08T00:36:18.275Z,1011.36
2022-10-08T00:37:18.279Z,1011.38
2022-10-08T00:38:18.294Z,1011.42
2022-10-08T00:39:18.278Z,1011.39
2022-10-08T00:40:18.281Z,1011.39
2022-10-08T00:41:18.278Z,1011.41
2022-10-08T00:42:18.263Z,1011.39
2022-10-08T00:43:20.734Z,1011.37
2022-10-08T00:44:18.292Z,1011.40
2022-10-08T00:45:18.270Z,1011.39
2022-10-08T00:46:18.277Z,1011.43
2022-10-08T00:47:18.273Z,1011.43
2022-10-08T00:48:18.261Z,1011.43
2022-10-08T00:49:18.261Z,1011.40
2022-10-08T00:50:18.274Z,1011.38
2022-10-08T00:51:18.256Z,1011.33
2022-10-08T00:52:18.268Z,1011.38
2022-10-08T00:53:18.261Z,1011.36
2022-10-08T00:54:18.266Z,1011.39
2022-10-08T00:55:18.269Z,1011.34
2022-10-08T00:56:18.254Z,1011.36
2022-10-08T00:57:18.270Z,1011.29
2022-10-08T00:58:18.268Z,1011.35
2022-10-08T00:59:18.251Z,1011.28
2022-10-08T01:00:18.260Z,1011.31
2022-10-08T01:01:18.320Z,1011.28
2022-10-08T01:02:18.300Z,1011.28
2022-10-08T01:03:18.256Z,1011.23
2022-10-08T01:04:18.260Z,1011.28
2022-10-08T01:05:18.259Z,1011.27
2022-10-08T01:06:18.248Z,1011.27
2022-10-08T01:07:18.256Z,1011.28
2022-10-08T01:08:18.271Z,1011.28
2022-10-08T01:09:19.562Z,1011.28
2022-10-08T01:10:18.250Z,1011.25
2022-10-08T01:11:18.249Z,1011.23
2022-10-08T01:12:18.249Z,1011.24
2022-10-08T01:13:18.255Z,1011.20
2022-10-08T01:14:18.238Z,1011.21
2022-10-08T01:15:18.244Z,1011.20
2022-10-08T01:16:18.283Z,1011.24
2022-10-08T01:17:18.234Z,1011.23
2022-10-08T01:18:18.248Z,1011.22
2022-10-08T01:19:18.243Z,1011.27
2022-10-08T01:20:18.254Z,1011.25
2022-10-08T01:21:18.231Z,1011.23
2022-10-08T01:22:18.239Z,1011.21
2022-10-08T01:23:18.223Z,1011.22
2022-10-08T01:24:18.249Z,1011.14
2022-10-08T01:25:18.228Z,1011.18
2022-10-08T01:26:18.221Z,1011.15
2022-10-08T01:27:18.234Z,1011.15
2022-10-08T01:28:18.266Z,1011.11
2022-10-08T01:29:18.251Z,1011.11
2022-10-08T01:30:18.219Z,1011.13
2022-10-08T01:31:18.343Z,1011.08
2022-10-08T01:32:18.230Z,1011.11
2022-10-08T01:33:18.223Z,1011.09
2022-10-08T01:34:18.233Z,1011.06
2022-10-08T01:35:18.231Z,1011.07
2022-10-08T01:36:18.215Z,1011.07
2022-10-08T01:37:18.239Z,1011.12
2022-10-08T01:38:18.220Z,1011.11
2022-10-08T01:39:18.235Z,1011.10
2022-10-08T01:40:18.234Z,1011.11
2022-10-08T01:41:18.231Z,1011.09
2022-10-08T01:42:18.220Z,1011.08
2022-10-08T01:43:18.215Z,1011.08
2022-10-08T01:44:18.225Z,1011.03
2022-10-08T01:45:18.228Z,1011.05
2022-10-08T01:46:18.277Z,1011.03
2022-10-08T01:47:18.210Z,1010.98
2022-10-08T01:48:18.206Z,1010.99
2022-10-08T01:49:18.204Z,1010.96
2022-10-08T01:50:18.213Z,1010.99
2022-10-08T01:51:18.222Z,1011.00
2022-10-08T01:52:18.214Z,1010.99
2022-10-08T01:53:18.219Z,1010.98
2022-10-08T01:54:18.203Z,1011.03
2022-10-08T01:55:18.214Z,1011.04
2022-10-08T01:56:18.227Z,1011.02
2022-10-08T01:57:18.196Z,1010.98
2022-10-08T01:58:18.197Z,1010.97
2022-10-08T01:59:18.194Z,1010.92
2022-10-08T02:00:18.205Z,1010.91
2022-10-08T02:01:18.269Z,1010.87
2022-10-08T02:02:18.246Z,1010.83
2022-10-08T02:03:18.206Z,1010.81
2022-10-08T02:04:18.201Z,1010.81
2022-10-08T02:05:18.195Z,1010.87
2022-10-08T02:06:18.189Z,1010.85
2022-10-08T02:07:18.219Z,1010.84
2022-10-08T02:08:18.200Z,1010.87
2022-10-08T02:09:18.193Z,1010.89
2022-10-08T02:10:18.184Z,1010.87
2022-10-08T02:11:18.202Z,1010.76
2022-10-08T02:12:18.194Z,1010.77
2022-10-08T02:13:18.181Z,1010.73
2022-10-08T02:14:18.185Z,1010.69
2022-10-08T02:15:18.188Z,1010.68
2022-10-08T02:16:18.217Z,1010.69
2022-10-08T02:17:18.207Z,1010.69
2022-10-08T02:18:18.202Z,1010.62
2022-10-08T02:19:18.201Z,1010.71
2022-10-08T02:20:18.175Z,1010.71
2022-10-08T02:21:18.188Z,1010.68
2022-10-08T02:22:18.193Z,1010.67
2022-10-08T02:23:18.190Z,1010.70
2022-10-08T02:24:18.170Z,1010.68
2022-10-08T02:25:18.190Z,1010.70
2022-10-08T02:26:18.170Z,1010.66
2022-10-08T02:27:18.177Z,1010.70
2022-10-08T02:28:18.220Z,1010.74
2022-10-08T02:29:18.180Z,1010.74
2022-10-08T02:30:18.172Z,1010.70
2022-10-08T02:31:18.233Z,1010.65
2022-10-08T02:32:18.166Z,1010.65
2022-10-08T02:33:18.173Z,1010.68
2022-10-08T02:34:18.171Z,1010.69
2022-10-08T02:35:18.178Z,1010.70
2022-10-08T02:36:18.163Z,1010.72
2022-10-08T02:37:18.162Z,1010.68
2022-10-08T02:38:18.175Z,1010.74
2022-10-08T02:39:18.183Z,1010.75
2022-10-08T02:40:18.170Z,1010.75
2022-10-08T02:41:18.166Z,1010.75
2022-10-08T02:42:18.161Z,1010.78
2022-10-08T02:43:18.179Z,1010.72
2022-10-08T02:44:18.167Z,1010.71
2022-10-08T02:45:18.173Z,1010.70
2022-10-08T02:46:18.235Z,1010.72
2022-10-08T02:47:18.164Z,1010.75
2022-10-08T02:48:18.170Z,1010.76
2022-10-08T02:49:18.162Z,1010.73
2022-10-08T02:50:18.168Z,1010.69
2022-10-08T02:51:18.170Z,1010.69
2022-10-08T02:52:18.152Z,1010.71
2022-10-08T02:53:18.151Z,1010.73
2022-10-08T02:54:18.150Z,1010.73
2022-10-08T02:55:18.164Z,1010.77
2022-10-08T02:56:18.172Z,1010.75
2022-10-08T02:57:18.176Z,1010.75
2022-10-08T02:58:18.158Z,1010.77
2022-10-08T02:59:18.153Z,1010.79
2022-10-08T03:00:18.149Z,1010.79
2022-10-08T03:01:18.235Z,1010.76
2022-10-08T03:02:18.225Z,1010.75
2022-10-08T03:03:18.157Z,1010.79
2022-10-08T03:04:18.158Z,1010.82
2022-10-08T03:05:18.151Z,1010.80
2022-10-08T03:06:18.161Z,1010.76
2022-10-08T03:07:18.148Z,1010.72
2022-10-08T03:08:18.147Z,1010.78
2022-10-08T03:09:18.151Z,1010.71
2022-10-08T03:10:18.170Z,1010.78
2022-10-08T03:11:18.135Z,1010.79
2022-10-08T03:12:18.133Z,1010.81
2022-10-08T03:13:18.146Z,1010.80
2022-10-08T03:14:18.129Z,1010.82
2022-10-08T03:15:18.143Z,1010.80
2022-10-08T03:16:18.179Z,1010.79
2022-10-08T03:17:18.132Z,1010.81
2022-10-08T03:18:18.150Z,1010.78
2022-10-08T03:19:18.158Z,1010.76
2022-10-08T03:20:18.133Z,1010.77
2022-10-08T03:21:18.130Z,1010.76
2022-10-08T03:22:18.129Z,1010.82
2022-10-08T03:23:18.137Z,1010.78
2022-10-08T03:24:18.137Z,1010.86
2022-10-08T03:25:18.156Z,1010.85
2022-10-08T03:26:18.132Z,1010.80
2022-10-08T03:27:18.138Z,1010.75
2022-10-08T03:28:18.172Z,1010.85
2022-10-08T03:29:18.129Z,1010.82
2022-10-08T03:30:18.120Z,1010.78
2022-10-08T03:31:18.204Z,1010.82
2022-10-08T03:32:18.141Z,1010.83
2022-10-08T03:33:18.115Z,1010.80
2022-10-08T03:34:18.140Z,1010.80
2022-10-08T03:35:18.128Z,1010.77
2022-10-08T03:36:18.119Z,1010.80
2022-10-08T03:37:18.123Z,1010.80
2022-10-08T03:38:18.124Z,1010.74
2022-10-08T03:39:18.130Z,1010.73
2022-10-08T03:40:18.120Z,1010.72
2022-10-08T03:41:18.139Z,1010.70
2022-10-08T03:42:18.110Z,1010.73
2022-10-08T03:43:18.115Z,1010.77
2022-10-08T03:44:18.111Z,1010.75
2022-10-08T03:45:18.126Z,1010.75
2022-10-08T03:46:18.237Z,1010.75
2022-10-08T03:47:18.123Z,1010.75
2022-10-08T03:48:18.105Z,1010.76
2022-10-08T03:49:18.108Z,1010.73
2022-10-08T03:50:18.103Z,1010.72
2022-10-08T03:51:18.110Z,1010.74
2022-10-08T03:52:25.181Z,1010.71
2022-10-08T03:53:18.103Z,1010.63
2022-10-08T03:54:18.108Z,1010.68
2022-10-08T03:55:18.116Z,1010.68
2022-10-08T03:56:18.119Z,1010.67
2022-10-08T03:57:18.118Z,1010.68
2022-10-08T03:58:18.114Z,1010.73
2022-10-08T03:59:18.104Z,1010.64
2022-10-08T04:00:18.102Z,1010.70
2022-10-08T04:01:18.126Z,1010.66
2022-10-08T04:02:18.174Z,1010.70
2022-10-08T04:03:18.090Z,1010.71
2022-10-08T04:04:20.705Z,1010.73
2022-10-08T04:05:18.098Z,1010.71
2022-10-08T04:06:18.090Z,1010.67
2022-10-08T04:07:18.111Z,1010.69
2022-10-08T04:08:18.104Z,1010.68
2022-10-08T04:09:18.108Z,1010.72
2022-10-08T04:10:18.103Z,1010.73
2022-10-08T04:11:18.130Z,1010.74
2022-10-08T04:12:18.099Z,1010.76
2022-10-08T04:13:18.088Z,1010.75
2022-10-08T04:14:18.095Z,1010.71
2022-10-08T04:15:18.105Z,1010.72
2022-10-08T04:16:18.146Z,1010.73
2022-10-08T04:17:18.115Z,1010.72
2022-10-08T04:18:18.095Z,1010.76
2022-10-08T04:19:18.095Z,1010.77
2022-10-08T04:20:18.080Z,1010.72
2022-10-08T04:21:18.085Z,1010.76
2022-10-08T04:22:18.093Z,1010.72
2022-10-08T04:23:18.103Z,1010.66
2022-10-08T04:24:18.086Z,1010.68
2022-10-08T04:25:18.110Z,1010.69
2022-10-08T04:26:18.095Z,1010.66
2022-10-08T04:27:18.069Z,1010.70
2022-10-08T04:28:18.156Z,1010.67
2022-10-08T04:29:18.071Z,1010.70
2022-10-08T04:30:18.070Z,1010.65
2022-10-08T04:31:18.138Z,1010.70
2022-10-08T04:32:18.066Z,1010.69
2022-10-08T04:33:18.110Z,1010.69
2022-10-08T04:34:18.101Z,1010.71
2022-10-08T04:35:18.086Z,1010.73
2022-10-08T04:36:18.071Z,1010.71
2022-10-08T04:37:18.073Z,1010.68
2022-10-08T04:38:18.076Z,1010.72
2022-10-08T04:39:18.070Z,1010.70
2022-10-08T04:40:18.088Z,1010.68
2022-10-08T04:41:18.061Z,1010.70
2022-10-08T04:42:18.070Z,1010.71
2022-10-08T04:43:18.066Z,1010.71
2022-10-08T04:44:18.116Z,1010.69
2022-10-08T04:45:18.080Z,1010.69
2022-10-08T04:46:18.202Z,1010.71
2022-10-08T04:47:18.077Z,1010.69
2022-10-08T04:48:18.071Z,1010.68
2022-10-08T04:49:18.067Z,1010.71
2022-10-08T04:50:18.078Z,1010.71
2022-10-08T04:51:18.108Z,1010.69
2022-10-08T04:52:18.060Z,1010.66
2022-10-08T04:53:18.526Z,1010.71
2022-10-08T04:54:18.074Z,1010.73
2022-10-08T04:55:18.057Z,1010.70
2022-10-08T04:56:18.078Z,1010.77
2022-10-08T04:57:18.079Z,1010.72
2022-10-08T04:58:18.051Z,1010.76
2022-10-08T04:59:18.052Z,1010.75
2022-10-08T05:00:19.155Z,1010.73
2022-10-08T05:01:18.109Z,1010.72
2022-10-08T05:02:18.106Z,1010.70
2022-10-08T05:03:18.069Z,1010.72
2022-10-08T05:04:18.050Z,1010.82
2022-10-08T05:05:18.106Z,1010.76
2022-10-08T05:06:18.092Z,1010.75
2022-10-08T05:07:18.041Z,1010.75
2022-10-08T05:08:18.055Z,1010.75
2022-10-08T05:09:18.039Z,1010.77
2022-10-08T05:10:18.046Z,1010.78
2022-10-08T05:11:18.048Z,1010.75
2022-10-08T05:12:18.068Z,1010.74
2022-10-08T05:13:18.048Z,1010.73
2022-10-08T05:14:18.033Z,1010.75
2022-10-08T05:15:18.050Z,1010.73
2022-10-08T05:16:18.137Z,1010.74
2022-10-08T05:17:18.059Z,1010.74
2022-10-08T05:18:18.054Z,1010.73
2022-10-08T05:19:18.054Z,1010.72
2022-10-08T05:20:18.032Z,1010.71
2022-10-08T05:21:18.034Z,1010.72
2022-10-08T05:22:18.036Z,1010.71
2022-10-08T05:23:18.038Z,1010.78
2022-10-08T05:24:18.048Z,1010.79
2022-10-08T05:25:18.041Z,1010.79
2022-10-08T05:26:18.040Z,1010.75
2022-10-08T05:27:18.030Z,1010.75
2022-10-08T05:28:18.056Z,1010.72
2022-10-08T05:29:18.061Z,1010.74
2022-10-08T05:30:21.821Z,1010.76
2022-10-08T05:31:18.066Z,1010.80
2022-10-08T05:32:18.028Z,1010.79
2022-10-08T05:33:18.033Z,1010.80
2022-10-08T05:34:18.033Z,1010.78
2022-10-08T05:35:18.051Z,1010.78
2022-10-08T05:36:18.030Z,1010.79
2022-10-08T05:37:18.010Z,1010.78
2022-10-08T05:38:18.034Z,1010.84
2022-10-08T05:39:18.012Z,1010.84
2022-10-08T05:40:18.011Z,1010.82
2022-10-08T05:41:18.395Z,1010.82
2022-10-08T05:42:18.015Z,1010.87
2022-10-08T05:43:18.019Z,1010.87
2022-10-08T05:44:18.019Z,1010.88
2022-10-08T05:45:18.018Z,1010.88
2022-10-08T05:46:18.051Z,1010.86
2022-10-08T05:47:18.030Z,1010.87
2022-10-08T05:48:18.014Z,1010.88
2022-10-08T05:49:18.003Z,1010.84
2022-10-08T05:50:18.009Z,1010.84
2022-10-08T05:51:18.008Z,1010.81
2022-10-08T05:52:18.014Z,1010.78
2022-10-08T05:53:18.001Z,1010.75
2022-10-08T05:54:18.011Z,1010.73
2022-10-08T05:55:18.012Z,1010.78
2022-10-08T05:56:18.013Z,1010.79
2022-10-08T05:57:18.024Z,1010.79
2022-10-08T05:58:18.005Z,1010.79
2022-10-08T05:59:18.012Z,1010.77
2022-10-08T06:00:17.995Z,1010.86
2022-10-08T06:01:18.011Z,1010.79
2022-10-08T06:02:17.999Z,1010.80
2022-10-08T06:03:18.017Z,1010.80
2022-10-08T06:04:18.078Z,1010.83
2022-10-08T06:05:17.989Z,1010.88
2022-10-08T06:06:18.003Z,1010.92
2022-10-08T06:07:17.999Z,1010.91
2022-10-08T06:08:18.019Z,1010.89
2022-10-08T06:09:18.020Z,1010.92
2022-10-08T06:10:18.013Z,1010.93
2022-10-08T06:11:18.006Z,1010.95
2022-10-08T06:12:18.005Z,1010.98
2022-10-08T06:13:17.980Z,1010.95
2022-10-08T06:14:18.005Z,1011.01
2022-10-08T06:15:17.995Z,1010.99
2022-10-08T06:16:18.018Z,1010.95
2022-10-08T06:17:17.995Z,1011.00
2022-10-08T06:18:17.999Z,1010.97
2022-10-08T06:19:17.986Z,1010.95
2022-10-08T06:20:17.989Z,1010.96
2022-10-08T06:21:17.991Z,1011.01
2022-10-08T06:22:18.007Z,1010.97
2022-10-08T06:23:17.972Z,1010.96
2022-10-08T06:24:17.994Z,1010.98
2022-10-08T06:25:17.999Z,1011.04
2022-10-08T06:26:17.983Z,1011.01
2022-10-08T06:27:17.972Z,1011.04
2022-10-08T06:28:18.001Z,1011.03
2022-10-08T06:29:18.003Z,1011.10
2022-10-08T06:30:17.977Z,1011.10
2022-10-08T06:31:18.055Z,1011.11
2022-10-08T06:32:17.980Z,1011.13
2022-10-08T06:33:17.968Z,1011.17
2022-10-08T06:34:17.985Z,1011.18
2022-10-08T06:35:17.982Z,1011.18
2022-10-08T06:36:17.988Z,1011.19
2022-10-08T06:37:17.976Z,1011.20
2022-10-08T06:38:17.967Z,1011.19
2022-10-08T06:39:18.021Z,1011.22
2022-10-08T06:40:17.977Z,1011.25
2022-10-08T06:41:17.970Z,1011.27
2022-10-08T06:42:17.984Z,1011.25
2022-10-08T06:43:17.969Z,1011.27
2022-10-08T06:44:17.955Z,1011.24
2022-10-08T06:45:17.955Z,1011.21
2022-10-08T06:46:18.023Z,1011.20
2022-10-08T06:47:17.975Z,1011.25
2022-10-08T06:48:17.962Z,1011.25
2022-10-08T06:49:17.950Z,1011.25
2022-10-08T06:50:17.951Z,1011.26
2022-10-08T06:51:17.960Z,1011.28
2022-10-08T06:52:17.976Z,1011.28
2022-10-08T06:53:17.958Z,1011.27
2022-10-08T06:54:17.982Z,1011.29
2022-10-08T06:55:17.964Z,1011.34
2022-10-08T06:56:17.957Z,1011.33
2022-10-08T06:57:17.975Z,1011.32
2022-10-08T06:58:17.940Z,1011.33
2022-10-08T06:59:17.953Z,1011.36
2022-10-08T07:00:17.935Z,1011.40
2022-10-08T07:01:18.015Z,1011.33
2022-10-08T07:02:17.974Z,1011.37
2022-10-08T07:03:17.947Z,1011.40
2022-10-08T07:04:17.947Z,1011.35
2022-10-08T07:05:17.957Z,1011.30
2022-10-08T07:06:17.951Z,1011.31
2022-10-08T07:07:17.960Z,1011.28
2022-10-08T07:08:17.940Z,1011.26
2022-10-08T07:09:17.933Z,1011.31
2022-10-08T07:10:18.638Z,1011.32
2022-10-08T07:11:17.934Z,1011.32
2022-10-08T07:12:17.948Z,1011.35
2022-10-08T07:13:17.944Z,1011.39
2022-10-08T07:14:17.942Z,1011.39
2022-10-08T07:15:17.965Z,1011.39
2022-10-08T07:16:20.733Z,1011.35
2022-10-08T07:17:17.930Z,1011.35
2022-10-08T07:18:17.940Z,1011.36
2022-10-08T07:19:17.965Z,1011.37
2022-10-08T07:20:17.938Z,1011.36
2022-10-08T07:21:17.962Z,1011.40
2022-10-08T07:22:17.926Z,1011.43
2022-10-08T07:23:17.930Z,1011.43
2022-10-08T07:24:17.943Z,1011.51
2022-10-08T07:25:17.954Z,1011.46
2022-10-08T07:26:17.950Z,1011.47
2022-10-08T07:27:17.929Z,1011.49
2022-10-08T07:28:17.973Z,1011.50
2022-10-08T07:29:17.949Z,1011.54
2022-10-08T07:30:17.928Z,1011.51
2022-10-08T07:31:18.007Z,1011.54
2022-10-08T07:32:17.939Z,1011.51
2022-10-08T07:33:17.948Z,1011.50
2022-10-08T07:34:17.930Z,1011.45
2022-10-08T07:35:17.935Z,1011.59
2022-10-08T07:36:17.938Z,1011.50
2022-10-08T07:37:17.971Z,1011.56
2022-10-08T07:38:17.937Z,1011.62
2022-10-08T07:39:17.932Z,1011.63
2022-10-08T07:40:17.933Z,1011.66
2022-10-08T07:41:17.938Z,1011.63
2022-10-08T07:42:17.930Z,1011.67
2022-10-08T07:43:19.845Z,1011.69
2022-10-08T07:44:17.937Z,1011.65
2022-10-08T07:45:17.947Z,1011.67
2022-10-08T07:46:17.933Z,1011.63
2022-10-08T07:47:17.932Z,1011.69
2022-10-08T07:48:17.942Z,1011.72
2022-10-08T07:49:17.937Z,1011.67
2022-10-08T07:50:17.950Z,1011.69
2022-10-08T07:51:17.972Z,1011.69
2022-10-08T07:52:17.933Z,1011.69
2022-10-08T07:53:17.953Z,1011.77
2022-10-08T07:54:17.944Z,1011.73
2022-10-08T07:55:17.960Z,1011.75
2022-10-08T07:56:17.954Z,1011.70
2022-10-08T07:57:17.973Z,1011.75
2022-10-08T07:58:17.959Z,1011.74
2022-10-08T07:59:17.954Z,1011.78
2022-10-08T08:00:20.572Z,1011.77
2022-10-08T08:01:17.995Z,1011.73
2022-10-08T08:02:18.001Z,1011.81
2022-10-08T08:03:18.056Z,1011.80
2022-10-08T08:04:17.965Z,1011.80
2022-10-08T08:05:17.978Z,1011.81
2022-10-08T08:06:17.979Z,1011.84
2022-10-08T08:07:17.980Z,1011.95
2022-10-08T08:08:17.989Z,1011.90
2022-10-08T08:09:18.001Z,1011.91
2022-10-08T08:10:17.992Z,1011.94
2022-10-08T08:11:17.995Z,1011.84
2022-10-08T08:12:18.008Z,1011.91
2022-10-08T08:13:17.991Z,1011.91
2022-10-08T08:14:18.001Z,1011.91
2022-10-08T08:15:18.004Z,1011.94
2022-10-08T08:16:18.139Z,1011.94
2022-10-08T08:17:17.998Z,1011.94
2022-10-08T08:18:18.013Z,1011.93
2022-10-08T08:19:18.026Z,1011.94
2022-10-08T08:20:18.058Z,1011.97
2022-10-08T08:21:18.020Z,1012.00
2022-10-08T08:22:18.014Z,1011.96
2022-10-08T08:23:18.033Z,1011.99
2022-10-08T08:24:18.028Z,1012.00
2022-10-08T08:25:18.031Z,1012.00
2022-10-08T08:26:18.055Z,1011.99
2022-10-08T08:27:18.037Z,1012.05
2022-10-08T08:28:18.107Z,1012.04
2022-10-08T08:29:18.054Z,1012.01
2022-10-08T08:30:18.067Z,1011.95
2022-10-08T08:31:18.119Z,1012.00
2022-10-08T08:32:18.080Z,1011.95
2022-10-08T08:33:18.078Z,1011.98
2022-10-08T08:34:18.085Z,1011.95
2022-10-08T08:35:18.115Z,1011.94
2022-10-08T08:36:18.100Z,1011.99
2022-10-08T08:37:18.083Z,1011.94
2022-10-08T08:38:18.091Z,1012.02
2022-10-08T08:39:18.095Z,1011.96
2022-10-08T08:40:18.115Z,1012.08
2022-10-08T08:41:20.530Z,1011.97
2022-10-08T08:42:18.152Z,1012.05
2022-10-08T08:43:18.128Z,1012.05
2022-10-08T08:44:18.136Z,1012.07
2022-10-08T08:45:41.542Z,1012.06
2022-10-08T08:46:18.243Z,1012.08
2022-10-08T08:47:18.171Z,1012.11
2022-10-08T08:48:18.165Z,1012.09
2022-10-08T08:49:18.168Z,1012.06
2022-10-08T08:50:18.171Z,1012.13
2022-10-08T08:51:18.195Z,1012.13
2022-10-08T08:52:18.190Z,1011.86
2022-10-08T08:53:18.207Z,1011.83
2022-10-08T08:54:18.193Z,1011.92
2022-10-08T08:55:18.201Z,1012.09
2022-10-08T08:56:18.244Z,1012.19
2022-10-08T08:57:18.214Z,1012.26
2022-10-08T08:58:18.253Z,1012.28
2022-10-08T08:59:18.235Z,1012.35
2022-10-08T09:00:18.232Z,1012.31
2022-10-08T09:01:18.275Z,1012.36
2022-10-08T09:02:18.247Z,1012.38
2022-10-08T09:03:18.295Z,1012.41
2022-10-08T09:04:18.261Z,1012.34
2022-10-08T09:05:18.326Z,1012.32
2022-10-08T09:06:18.275Z,1012.34
2022-10-08T09:07:18.310Z,1012.23
2022-10-08T09:08:18.303Z,1012.18
2022-10-08T09:09:18.309Z,1012.12
2022-10-08T09:10:18.306Z,1012.27
2022-10-08T09:11:18.344Z,1012.33
2022-10-08T09:12:20.803Z,1011.99
2022-10-08T09:13:18.366Z,1012.27
2022-10-08T09:14:18.366Z,1012.33
2022-10-08T09:15:18.373Z,1011.99
2022-10-08T09:16:18.401Z,1012.32
2022-10-08T09:17:18.358Z,1012.12
2022-10-08T09:18:18.364Z,1012.31
2022-10-08T09:19:18.376Z,1012.02
2022-10-08T09:20:18.396Z,1012.26
2022-10-08T09:21:18.413Z,1012.30
2022-10-08T09:22:18.396Z,1012.33
2022-10-08T09:23:18.412Z,1012.03
2022-10-08T09:24:18.433Z,1012.20
2022-10-08T09:25:18.442Z,1012.07
2022-10-08T09:26:18.436Z,1012.17
2022-10-08T09:27:18.453Z,1012.05
2022-10-08T09:28:18.492Z,1012.08
2022-10-08T09:29:18.468Z,1012.15
2022-10-08T09:30:18.495Z,1012.20
2022-10-08T09:31:18.603Z,1012.16
2022-10-08T09:32:18.489Z,1012.14
2022-10-08T09:33:18.496Z,1012.14
2022-10-08T09:34:18.491Z,1012.12
2022-10-08T09:35:18.522Z,1012.12
2022-10-08T09:36:18.522Z,1012.15
2022-10-08T09:37:18.548Z,1012.16
2022-10-08T09:38:18.526Z,1012.16
2022-10-08T09:39:18.526Z,1012.12
2022-10-08T09:40:18.559Z,1012.14
2022-10-08T09:41:18.539Z,1012.13
2022-10-08T09:42:18.557Z,1012.16
2022-10-08T09:43:18.561Z,1012.20
2022-10-08T09:44:18.577Z,1012.29
2022-10-08T09:45:22.108Z,1012.26
2022-10-08T09:46:18.606Z,1012.27
2022-10-08T09:47:18.588Z,1012.15
2022-10-08T09:48:18.581Z,1012.16
2022-10-08T09:49:18.584Z,1012.12
2022-10-08T09:50:18.585Z,1012.15
2022-10-08T09:51:18.584Z,1012.20
2022-10-08T09:52:26.164Z,1012.18
2022-10-08T09:53:18.598Z,1012.09
2022-10-08T09:54:18.615Z,1012.19
2022-10-08T09:55:18.607Z,1012.15
2022-10-08T09:56:18.625Z,1012.22
2022-10-08T09:57:18.621Z,1012.24
2022-10-08T09:58:18.660Z,1012.28
2022-10-08T09:59:18.652Z,1012.29
2022-10-08T10:00:18.696Z,1012.34
2022-10-08T10:01:18.666Z,1012.36
2022-10-08T10:02:18.664Z,1012.36
2022-10-08T10:03:18.662Z,1012.27
2022-10-08T10:04:18.708Z,1012.31
2022-10-08T10:05:18.669Z,1012.31
2022-10-08T10:06:21.210Z,1012.35
2022-10-08T10:07:18.678Z,1012.30
2022-10-08T10:08:18.685Z,1012.34
2022-10-08T10:09:18.689Z,1012.45
2022-10-08T10:10:18.772Z,1012.34
2022-10-08T10:11:18.683Z,1012.35
2022-10-08T10:12:18.691Z,1012.25
2022-10-08T10:13:18.734Z,1012.32
2022-10-08T10:14:18.699Z,1012.29
2022-10-08T10:15:18.715Z,1012.39
2022-10-08T10:16:18.734Z,1012.40
2022-10-08T10:17:18.724Z,1012.33
2022-10-08T10:18:18.776Z,1012.39
2022-10-08T10:19:18.737Z,1012.38
2022-10-08T10:20:18.780Z,1012.36
2022-10-08T10:21:18.730Z,1012.40
2022-10-08T10:22:18.734Z,1012.41
2022-10-08T10:23:18.740Z,1012.38
2022-10-08T10:24:18.763Z,1012.36
2022-10-08T10:25:18.756Z,1012.44
2022-10-08T10:26:18.763Z,1012.42
2022-10-08T10:27:18.756Z,1012.41
2022-10-08T10:28:18.815Z,1012.42
2022-10-08T10:29:18.764Z,1012.43
2022-10-08T10:30:18.772Z,1012.45
2022-10-08T10:31:18.837Z,1012.47
2022-10-08T10:32:21.051Z,1012.46
2022-10-08T10:33:18.777Z,1012.44
2022-10-08T10:34:18.801Z,1012.42
2022-10-08T10:35:18.790Z,1012.35
2022-10-08T10:36:18.787Z,1012.45
2022-10-08T10:37:18.806Z,1012.47
2022-10-08T10:38:18.821Z,1012.45
2022-10-08T10:39:18.802Z,1012.42
2022-10-08T10:40:18.813Z,1012.47
2022-10-08T10:41:18.816Z,1012.43
2022-10-08T10:42:18.811Z,1012.44
2022-10-08T10:43:18.826Z,1012.53
2022-10-08T10:44:18.840Z,1012.52
2022-10-08T10:45:18.829Z,1012.55
2022-10-08T10:46:18.917Z,1012.48
2022-10-08T10:47:18.827Z,1012.55
2022-10-08T10:48:18.822Z,1012.48
2022-10-08T10:49:18.854Z,1012.54
2022-10-08T10:50:18.863Z,1012.50
2022-10-08T10:51:18.834Z,1012.53
2022-10-08T10:52:18.858Z,1012.49
2022-10-08T10:53:18.855Z,1012.51
2022-10-08T10:54:18.851Z,1012.51
2022-10-08T10:55:18.889Z,1012.48
2022-10-08T10:56:18.856Z,1012.49
2022-10-08T10:57:18.852Z,1012.51
2022-10-08T10:58:18.859Z,1012.53
2022-10-08T10:59:18.851Z,1012.53
2022-10-08T11:00:18.874Z,1012.55
2022-10-08T11:01:18.901Z,1012.54
2022-10-08T11:02:18.925Z,1012.49
2022-10-08T11:03:18.868Z,1012.55
2022-10-08T11:04:18.884Z,1012.55
2022-10-08T11:05:18.899Z,1012.51
2022-10-08T11:06:18.888Z,1012.52
2022-10-08T11:07:18.889Z,1012.55
2022-10-08T11:08:18.901Z,1012.52
2022-10-08T11:09:18.878Z,1012.52
2022-10-08T11:10:18.906Z,1012.51
2022-10-08T11:11:18.905Z,1012.53
2022-10-08T11:12:18.889Z,1012.50
2022-10-08T11:13:18.899Z,1012.50
2022-10-08T11:14:18.904Z,1012.54
2022-10-08T11:15:18.910Z,1012.53
2022-10-08T11:16:18.975Z,1012.53
2022-10-08T11:17:22.053Z,1012.49
2022-10-08T11:18:18.931Z,1012.51
2022-10-08T11:19:18.903Z,1012.56
2022-10-08T11:20:18.936Z,1012.52
2022-10-08T11:21:18.917Z,1012.54
2022-10-08T11:22:18.928Z,1012.52
2022-10-08T11:23:18.935Z,1012.51
2022-10-08T11:24:18.915Z,1012.49
2022-10-08T11:25:18.920Z,1012.54
2022-10-08T11:26:22.708Z,1012.50
2022-10-08T11:27:18.939Z,1012.54
2022-10-08T11:28:18.972Z,1012.51
2022-10-08T11:29:18.938Z,1012.53
2022-10-08T11:30:18.931Z,1012.56
2022-10-08T11:31:18.977Z,1012.60
2022-10-08T11:32:18.964Z,1012.69
2022-10-08T11:33:18.931Z,1012.63
2022-10-08T11:34:18.967Z,1012.63
2022-10-08T11:35:18.928Z,1012.62
2022-10-08T11:36:18.966Z,1012.63
2022-10-08T11:37:18.974Z,1012.66
2022-10-08T11:38:18.958Z,1012.61
2022-10-08T11:39:18.937Z,1012.63
2022-10-08T11:40:18.941Z,1012.63
2022-10-08T11:41:18.944Z,1012.69
2022-10-08T11:42:18.993Z,1012.74
2022-10-08T11:43:18.958Z,1012.67
2022-10-08T11:44:18.966Z,1012.72
2022-10-08T11:45:18.946Z,1012.70
2022-10-08T11:46:19.038Z,1012.73
2022-10-08T11:47:18.951Z,1012.72
2022-10-08T11:48:18.999Z,1012.71
2022-10-08T11:49:18.952Z,1012.72
2022-10-08T11:50:18.963Z,1012.78
2022-10-08T11:51:18.966Z,1012.74
2022-10-08T11:52:18.953Z,1012.73
2022-10-08T11:53:18.966Z,1012.77
2022-10-08T11:54:18.971Z,1012.72
2022-10-08T11:55:18.981Z,1012.75
2022-10-08T11:56:18.991Z,1012.74
2022-10-08T11:57:18.986Z,1012.73
2022-10-08T11:58:18.981Z,1012.71
2022-10-08T11:59:18.983Z,1012.72
2022-10-08T12:00:19.104Z,1012.71
2022-10-08T12:01:18.967Z,1012.67
2022-10-08T12:02:19.099Z,1012.72
2022-10-08T12:03:19.045Z,1012.72
2022-10-08T12:04:18.988Z,1012.66
2022-10-08T12:05:19.004Z,1012.69